Terminal Aerodrome Forecast
Issued by NWS Charleston, WV

Current Version | Previous Version | Text Only | Print | Product List | Glossary Off
Versions: 1 2 3 4 5 6 7 8 9 10 11 12 13 14 15 16 17 18 19 20 21 22 23 24 25 26

000
FTUS41 KRLX 020224 AAA
TAFHTS
TAF AMD
KHTS 020224Z 0202/0224 00000KT P6SM FEW080
     FM020800 00000KT 5SM HZ SKC
     FM021000 00000KT 1 1/2SM BR BKN001
     FM021200 00000KT 5SM BR SCT010
     FM021300 24004KT P6SM SCT050=

USA.gov is the U.S. government's official web portal to all federal, state and local government web resources and services.